createdAt,value
2023-04-15T00:03:07.496Z,8.03
2023-04-15T00:08:15.722Z,7.82
2023-04-15T00:13:21.120Z,6.60
2023-04-15T00:18:27.026Z,7.87
2023-04-15T00:23:36.645Z,6.97
2023-04-15T00:28:42.033Z,8.83
2023-04-15T00:33:47.521Z,8.90
2023-04-15T00:38:55.456Z,5.22
2023-04-15T00:44:00.920Z,6.47
2023-04-15T00:49:07.679Z,6.80
2023-04-15T00:54:16.387Z,7.35
2023-04-15T00:59:23.184Z,7.23
2023-04-15T01:04:28.773Z,5.83
2023-04-15T01:09:37.072Z,5.65
2023-04-15T01:14:42.554Z,5.87
2023-04-15T01:19:47.957Z,10.87
2023-04-15T01:25:04.960Z,5.85
2023-04-15T01:30:14.227Z,6.60
2023-04-15T01:35:19.628Z,7.28
2023-04-15T01:40:25.172Z,7.00
2023-04-15T01:45:33.079Z,7.33
2023-04-15T01:50:39.243Z,7.28
2023-04-15T01:55:44.821Z,8.68
2023-04-15T02:00:56.121Z,8.73
2023-04-15T02:06:05.031Z,9.10
2023-04-15T02:11:10.507Z,5.97
2023-04-15T02:16:22.049Z,4.67
2023-04-15T02:21:29.111Z,4.80
2023-04-15T02:26:34.909Z,5.80
2023-04-15T02:31:44.019Z,8.05
2023-04-15T02:36:49.954Z,6.10
2023-04-15T02:41:55.546Z,6.37
2023-04-15T02:47:05.097Z,6.05
2023-04-15T02:52:10.517Z,3.43
2023-04-15T02:57:16.238Z,5.63
2023-04-15T03:02:24.342Z,5.57
2023-04-15T03:07:30.031Z,5.00
2023-04-15T03:12:35.873Z,5.13
2023-04-15T03:17:44.443Z,5.05
2023-04-15T03:22:49.970Z,6.77
2023-04-15T03:27:57.772Z,7.78
2023-04-15T03:33:05.803Z,6.57
2023-04-15T03:38:11.400Z,4.70
2023-04-15T03:43:16.721Z,5.63
2023-04-15T03:48:24.749Z,7.90
2023-04-15T03:53:30.196Z,4.50
2023-04-15T03:58:36.118Z,6.18
2023-04-15T04:03:44.431Z,4.07
2023-04-15T04:08:50.267Z,5.13
2023-04-15T04:13:56.066Z,5.70
2023-04-15T04:19:06.857Z,6.53
2023-04-15T04:24:12.315Z,5.32
2023-04-15T04:29:18.006Z,4.53
2023-04-15T04:34:26.061Z,7.03
2023-04-15T04:39:31.799Z,5.00
2023-04-15T04:44:37.453Z,6.63
2023-04-15T04:49:45.575Z,7.18
2023-04-15T04:54:52.314Z,5.82
2023-04-15T04:59:57.783Z,4.87
2023-04-15T05:05:06.884Z,6.50
2023-04-15T05:10:14.957Z,6.63
2023-04-15T05:15:20.624Z,5.70
2023-04-15T05:20:28.836Z,7.22
2023-04-15T05:25:34.515Z,5.60
2023-04-15T05:30:40.154Z,6.90
2023-04-15T05:35:51.359Z,9.02
2023-04-15T05:40:56.929Z,7.77
2023-04-15T05:46:02.564Z,8.95
2023-04-15T05:51:12.596Z,5.73
2023-04-15T05:56:18.108Z,12.15
2023-04-15T06:01:23.616Z,8.63
2023-04-15T06:06:32.676Z,9.07
2023-04-15T06:11:38.176Z,10.55
2023-04-15T06:16:43.770Z,12.80
2023-04-15T06:21:54.712Z,10.80
2023-04-15T06:27:00.226Z,10.15
2023-04-15T06:32:06.044Z,9.63
2023-04-15T06:37:18.665Z,10.70
2023-04-15T06:42:24.216Z,8.95
2023-04-15T06:47:29.860Z,9.87
2023-04-15T06:52:38.627Z,8.70
2023-04-15T06:57:46.860Z,10.00
2023-04-15T07:02:52.325Z,9.52
2023-04-15T07:08:00.597Z,9.43
2023-04-15T07:13:06.033Z,9.77
2023-04-15T07:18:11.664Z,6.43
2023-04-15T07:23:19.780Z,7.83
2023-04-15T07:28:25.383Z,6.80
2023-04-15T07:33:31.249Z,5.47
2023-04-15T07:38:39.376Z,7.17
2023-04-15T07:43:45.214Z,8.20
2023-04-15T07:48:51.046Z,10.35
2023-04-15T07:53:59.281Z,6.27
2023-04-15T07:59:08.934Z,6.45
2023-04-15T08:04:14.933Z,8.48
2023-04-15T08:09:27.250Z,6.83
2023-04-15T08:14:33.296Z,5.03
2023-04-15T08:19:38.891Z,6.07
2023-04-15T08:24:47.050Z,6.60
2023-04-15T08:29:52.827Z,6.57
2023-04-15T08:35:01.960Z,6.20
2023-04-15T08:40:11.436Z,8.00
2023-04-15T08:45:17.107Z,7.03
2023-04-15T08:50:23.990Z,5.73
2023-04-15T08:55:36.281Z,3.70
2023-04-15T09:00:41.797Z,4.82
2023-04-15T09:05:47.677Z,5.60
2023-04-15T09:10:57.006Z,5.63
2023-04-15T09:16:04.931Z,6.43
2023-04-15T09:21:17.166Z,5.73
2023-04-15T09:26:33.987Z,5.28
2023-04-15T09:31:39.886Z,4.55
2023-04-15T09:36:56.423Z,4.80
2023-04-15T09:42:11.629Z,3.17
2023-04-15T09:47:31.556Z,4.25
2023-04-15T09:52:37.184Z,3.53
2023-04-15T09:57:45.390Z,2.67
2023-04-15T10:02:51.298Z,3.40
2023-04-15T10:07:57.735Z,4.87
2023-04-15T10:13:06.284Z,4.82
2023-04-15T10:18:14.792Z,4.57
2023-04-15T10:23:21.993Z,6.50
2023-04-15T10:28:33.233Z,6.07
2023-04-15T10:33:39.390Z,5.87
2023-04-15T10:38:47.004Z,5.27
2023-04-15T10:43:58.019Z,5.80
2023-04-15T10:49:11.204Z,5.50
2023-04-15T10:54:36.468Z,4.13
2023-04-15T11:00:07.265Z,4.88
2023-04-15T11:05:13.502Z,5.77
2023-04-15T11:10:55.810Z,4.23
2023-04-15T11:16:07.703Z,5.53
2023-04-15T11:21:16.661Z,7.40
2023-04-15T11:26:22.578Z,4.43
2023-04-15T11:31:38.840Z,3.42
2023-04-15T11:36:46.802Z,4.60
2023-04-15T11:41:55.148Z,4.07
2023-04-15T11:47:03.646Z,5.25
2023-04-15T11:52:14.188Z,4.93
2023-04-15T11:57:19.789Z,5.07
2023-04-15T12:02:34.820Z,4.30
2023-04-15T12:08:01.061Z,3.80
2023-04-15T12:13:09.764Z,4.57
2023-04-15T12:18:22.808Z,3.53
2023-04-15T12:23:28.298Z,3.33
2023-04-15T12:28:34.444Z,3.20
2023-04-15T12:33:42.737Z,3.53
2023-04-15T12:38:48.326Z,4.20
2023-04-15T12:43:54.294Z,2.70
2023-04-15T12:49:05.157Z,3.25
2023-04-15T12:54:11.036Z,3.43
2023-04-15T12:59:17.175Z,2.83
2023-04-15T13:04:25.867Z,3.67
2023-04-15T13:09:33.596Z,3.80
2023-04-15T13:14:40.823Z,3.40
2023-04-15T13:19:49.064Z,4.25
2023-04-15T13:24:54.677Z,2.97
2023-04-15T13:30:00.675Z,4.97
2023-04-15T13:35:09.418Z,2.87
2023-04-15T13:40:15.049Z,4.60
2023-04-15T13:45:20.567Z,3.42
2023-04-15T13:50:31.183Z,5.83
2023-04-15T13:55:39.069Z,3.93
2023-04-15T14:00:44.617Z,5.30
2023-04-15T14:05:56.230Z,4.70
2023-04-15T14:11:02.056Z,4.10
2023-04-15T14:16:08.527Z,6.10
2023-04-15T14:21:17.728Z,4.73
2023-04-15T14:26:23.565Z,3.17
2023-04-15T14:31:37.824Z,4.15
2023-04-15T14:36:50.774Z,4.60
2023-04-15T14:41:56.535Z,4.87
2023-04-15T14:47:02.099Z,4.45
2023-04-15T14:52:10.317Z,3.90
2023-04-15T14:57:15.879Z,5.30
2023-04-15T15:02:37.312Z,4.40
2023-04-15T15:07:50.340Z,4.33
2023-04-15T15:12:55.912Z,3.27
2023-04-15T15:18:01.876Z,4.97
2023-04-15T15:23:12.846Z,4.43
2023-04-15T15:28:19.506Z,6.17
2023-04-15T15:33:25.173Z,5.10
2023-04-15T15:38:33.224Z,3.87
2023-04-15T15:43:38.790Z,3.10
2023-04-15T15:48:44.526Z,4.07
2023-04-15T15:53:52.883Z,3.03
2023-04-15T15:58:59.900Z,5.22
2023-04-15T16:04:07.468Z,4.43
2023-04-15T16:09:16.146Z,4.33
2023-04-15T16:14:21.968Z,3.80
2023-04-15T16:19:27.590Z,3.25
2023-04-15T16:24:36.603Z,3.33
2023-04-15T16:29:42.252Z,4.70
2023-04-15T16:34:50.273Z,2.67
2023-04-15T16:39:59.269Z,3.07
2023-04-15T16:45:05.045Z,4.32
2023-04-15T16:50:12.001Z,4.47
2023-04-15T16:55:20.715Z,4.22
2023-04-15T17:00:26.272Z,5.15
2023-04-15T17:05:31.857Z,4.47
2023-04-15T17:10:39.966Z,3.35
2023-04-15T17:15:47.575Z,5.20
2023-04-15T17:20:53.364Z,4.57
2023-04-15T17:26:02.023Z,3.78
2023-04-15T17:31:08.213Z,6.33
2023-04-15T17:36:15.394Z,4.93
2023-04-15T17:41:23.537Z,5.10
2023-04-15T17:46:32.307Z,8.17
2023-04-15T17:51:37.705Z,4.38
2023-04-15T17:56:49.328Z,3.60
2023-04-15T18:01:54.925Z,8.75
2023-04-15T18:07:00.360Z,6.00
2023-04-15T18:12:09.169Z,5.03
2023-04-15T18:17:15.003Z,8.07
2023-04-15T18:22:20.582Z,4.35
2023-04-15T18:27:28.596Z,8.03
2023-04-15T18:32:34.429Z,7.50
2023-04-15T18:37:40.075Z,7.23
2023-04-15T18:42:48.150Z,4.10
2023-04-15T18:47:54.264Z,8.70
2023-04-15T18:53:00.152Z,9.30
2023-04-15T18:58:09.744Z,5.85
2023-04-15T19:03:15.212Z,10.15
2023-04-15T19:08:20.724Z,5.70
2023-04-15T19:13:28.835Z,7.93
2023-04-15T19:18:34.618Z,4.47
2023-04-15T19:23:40.205Z,10.07
2023-04-15T19:28:53.273Z,11.23
2023-04-15T19:33:58.681Z,7.53
2023-04-15T19:39:04.378Z,11.73
2023-04-15T19:44:13.070Z,15.53
2023-04-15T19:49:18.740Z,13.60
2023-04-15T19:54:24.281Z,11.95
2023-04-15T19:59:32.294Z,11.97
2023-04-15T20:04:37.947Z,8.25
2023-04-15T20:09:44.018Z,11.32
2023-04-15T20:14:52.572Z,10.47
2023-04-15T20:19:58.441Z,8.32
2023-04-15T20:25:04.892Z,13.70
2023-04-15T20:30:14.079Z,12.38
2023-04-15T20:35:19.964Z,14.68
2023-04-15T20:40:26.017Z,11.93
2023-04-15T20:45:33.943Z,12.02
2023-04-15T20:50:39.744Z,10.97
2023-04-15T20:55:45.225Z,12.18
2023-04-15T21:00:55.185Z,12.13
2023-04-15T21:06:00.744Z,10.27
2023-04-15T21:11:07.786Z,16.75
2023-04-15T21:16:15.861Z,13.03
2023-04-15T21:21:21.345Z,13.30
2023-04-15T21:26:26.876Z,10.48
2023-04-15T21:31:34.894Z,20.27
2023-04-15T21:36:41.199Z,15.15
2023-04-15T21:41:46.873Z,17.10
2023-04-15T21:46:54.996Z,19.20
2023-04-15T21:52:01.880Z,16.15
2023-04-15T21:57:07.312Z,14.73
2023-04-15T22:02:15.966Z,19.50
2023-04-15T22:07:21.400Z,22.83
2023-04-15T22:12:26.862Z,20.50
2023-04-15T22:17:34.819Z,19.55
2023-04-15T22:22:44.190Z,24.60
2023-04-15T22:27:50.197Z,20.95
2023-04-15T22:32:58.251Z,23.13
2023-04-15T22:38:03.799Z,22.00
2023-04-15T22:43:09.187Z,18.33
2023-04-15T22:48:17.315Z,19.50
2023-04-15T22:53:22.810Z,19.33
2023-04-15T22:58:28.380Z,17.50
2023-04-15T23:03:55.548Z,20.55
2023-04-15T23:09:01.866Z,22.35
2023-04-15T23:14:07.250Z,18.57
2023-04-15T23:19:15.226Z,28.45
2023-04-15T23:24:20.768Z,23.17
2023-04-15T23:29:26.920Z,18.67
2023-04-15T23:34:34.873Z,19.45
2023-04-15T23:39:40.251Z,20.43
2023-04-15T23:44:45.574Z,22.63
2023-04-15T23:49:53.502Z,23.87
2023-04-15T23:54:58.977Z,26.10
